Terminal Aerodrome Forecast
Issued by NWS

Home | Current Version | Previous Version | Text Only | Print | Product List | Glossary Off
Versions: 1 2 3 4 5 6 7 8 9 10 11 12 13 14 15 16 17

000
FTUS41 KCLE 291326 AAA
TAFFDY
TAF AMD
KFDY 291326Z 2913/3012 17006KT P6SM SCT050 BKN080
     FM292300 12005KT P6SM VCTS BKN040CB OVC100
      TEMPO 3000/3002 2SM -TSRA SCT025 OVC040CB
     FM300300 15004KT P6SM SCT035 OVC100=

USA.gov is the U.S. government's official web portal to all federal, state and local government web resources and services.